sensor_id;sensor_type;location;lat;lon;timestamp;pressure;altitude;pressure_sealevel;temperature;humidity
70445;BME280;57902;49.638;11.070;2022-11-15T00:00:48;98187.06;;;9.15;81.37
70445;BME280;57902;49.638;11.070;2022-11-15T00:03:19;98190.50;;;9.15;81.09
70445;BME280;57902;49.638;11.070;2022-11-15T00:05:46;98188.16;;;9.06;81.75
70445;BME280;57902;49.638;11.070;2022-11-15T00:08:13;98189.91;;;9.04;81.71
70445;BME280;57902;49.638;11.070;2022-11-15T00:10:40;98184.72;;;9.05;81.66
70445;BME280;57902;49.638;11.070;2022-11-15T00:13:09;98189.94;;;9.02;81.48
70445;BME280;57902;49.638;11.070;2022-11-15T00:15:36;98179.81;;;8.96;81.96
70445;BME280;57902;49.638;11.070;2022-11-15T00:18:03;98185.09;;;8.91;81.99
70445;BME280;57902;49.638;11.070;2022-11-15T00:20:31;98181.56;;;8.94;81.63
70445;BME280;57902;49.638;11.070;2022-11-15T00:22:57;98187.66;;;8.91;81.70
70445;BME280;57902;49.638;11.070;2022-11-15T00:25:24;98191.25;;;8.84;82.11
70445;BME280;57902;49.638;11.070;2022-11-15T00:27:50;98180.88;;;8.87;81.99
70445;BME280;57902;49.638;11.070;2022-11-15T00:30:17;98189.50;;;8.85;81.98
70445;BME280;57902;49.638;11.070;2022-11-15T00:32:44;98186.03;;;8.87;81.67
70445;BME280;57902;49.638;11.070;2022-11-15T00:35:10;98187.81;;;8.84;81.77
70445;BME280;57902;49.638;11.070;2022-11-15T00:37:37;98183.63;;;8.81;81.96
70445;BME280;57902;49.638;11.070;2022-11-15T00:40:03;98186.25;;;8.78;81.86
70445;BME280;57902;49.638;11.070;2022-11-15T00:42:30;98184.63;;;8.74;82.28
70445;BME280;57902;49.638;11.070;2022-11-15T00:44:56;98177.75;;;8.74;82.39
70445;BME280;57902;49.638;11.070;2022-11-15T00:47:23;98177.91;;;8.68;82.71
70445;BME280;57902;49.638;11.070;2022-11-15T00:49:49;98177.94;;;8.67;82.87
70445;BME280;57902;49.638;11.070;2022-11-15T00:52:16;98179.72;;;8.63;83.14
70445;BME280;57902;49.638;11.070;2022-11-15T00:54:42;98176.25;;;8.66;82.83
70445;BME280;57902;49.638;11.070;2022-11-15T00:57:08;98177.13;;;8.65;82.68
70445;BME280;57902;49.638;11.070;2022-11-15T00:59:35;98175.38;;;8.67;82.70
70445;BME280;57902;49.638;11.070;2022-11-15T01:02:01;98172.88;;;8.64;82.53
70445;BME280;57902;49.638;11.070;2022-11-15T01:04:28;98175.38;;;8.67;82.27
70445;BME280;57902;49.638;11.070;2022-11-15T01:06:54;98165.28;;;8.59;83.16
70445;BME280;57902;49.638;11.070;2022-11-15T01:09:21;98161.06;;;8.56;83.05
70445;BME280;57902;49.638;11.070;2022-11-15T01:11:48;98164.50;;;8.55;82.74
70445;BME280;57902;49.638;11.070;2022-11-15T01:14:14;98164.50;;;8.55;82.65
70445;BME280;57902;49.638;11.070;2022-11-15T01:16:42;98168.81;;;8.55;82.68
70445;BME280;57902;49.638;11.070;2022-11-15T01:19:08;98162.88;;;8.51;82.75
70445;BME280;57902;49.638;11.070;2022-11-15T01:21:34;98159.44;;;8.52;82.92
70445;BME280;57902;49.638;11.070;2022-11-15T01:24:01;98157.75;;;8.51;83.10
70445;BME280;57902;49.638;11.070;2022-11-15T01:26:27;98156.88;;;8.52;82.31
70445;BME280;57902;49.638;11.070;2022-11-15T01:28:54;98162.09;;;8.49;82.53
70445;BME280;57902;49.638;11.070;2022-11-15T01:31:21;98166.28;;;8.53;82.04
70445;BME280;57902;49.638;11.070;2022-11-15T01:33:48;98160.34;;;8.50;82.34
70445;BME280;57902;49.638;11.070;2022-11-15T01:36:17;98162.13;;;8.48;82.52
70445;BME280;57902;49.638;11.070;2022-11-15T01:38:44;98157.75;;;8.51;81.64
70445;BME280;57902;49.638;11.070;2022-11-15T01:41:20;98151.88;;;8.46;82.10
70445;BME280;57902;49.638;11.070;2022-11-15T01:44:25;98155.28;;;8.47;82.08
70445;BME280;57902;49.638;11.070;2022-11-15T01:46:46;98150.09;;;8.48;81.87
70445;BME280;57902;49.638;11.070;2022-11-15T01:49:19;98144.09;;;8.49;81.67
70445;BME280;57902;49.638;11.070;2022-11-15T01:51:47;98142.44;;;8.47;81.64
70445;BME280;57902;49.638;11.070;2022-11-15T01:54:15;98146.03;;;8.38;82.96
70445;BME280;57902;49.638;11.070;2022-11-15T01:56:50;98134.97;;;8.36;82.21
70445;BME280;57902;49.638;11.070;2022-11-15T01:59:19;98128.81;;;8.43;81.95
70445;BME280;57902;49.638;11.070;2022-11-15T02:01:46;98131.44;;;8.40;82.18
70445;BME280;57902;49.638;11.070;2022-11-15T02:04:15;98119.41;;;8.42;81.49
70445;BME280;57902;49.638;11.070;2022-11-15T02:06:43;98108.22;;;8.46;81.53
70445;BME280;57902;49.638;11.070;2022-11-15T02:09:11;98105.59;;;8.48;81.28
70445;BME280;57902;49.638;11.070;2022-11-15T02:11:37;98101.34;;;8.47;81.33
70445;BME280;57902;49.638;11.070;2022-11-15T02:14:05;98108.22;;;8.46;81.56
70445;BME280;57902;49.638;11.070;2022-11-15T02:17:31;98103.06;;;8.46;81.24
70445;BME280;57902;49.638;11.070;2022-11-15T02:28:29;98089.53;;;8.38;81.28
70445;BME280;57902;49.638;11.070;2022-11-15T02:31:08;98087.81;;;8.38;81.11
70445;BME280;57902;49.638;11.070;2022-11-15T02:36:25;98084.53;;;8.32;81.66
70445;BME280;57902;49.638;11.070;2022-11-15T02:39:21;98086.38;;;8.27;81.53
70445;BME280;57902;49.638;11.070;2022-11-15T02:41:54;98088.81;;;8.33;80.82
70445;BME280;57902;49.638;11.070;2022-11-15T02:44:29;98073.34;;;8.34;80.38
70445;BME280;57902;49.638;11.070;2022-11-15T02:47:02;98081.91;;;8.35;80.17
70445;BME280;57902;49.638;11.070;2022-11-15T02:49:42;98071.69;;;8.32;80.09
70445;BME280;57902;49.638;11.070;2022-11-15T02:52:14;98069.13;;;8.32;79.72
70445;BME280;57902;49.638;11.070;2022-11-15T02:54:41;98067.41;;;8.32;79.09
70445;BME280;57902;49.638;11.070;2022-11-15T02:57:15;98059.75;;;8.29;79.27
70445;BME280;57902;49.638;11.070;2022-11-15T03:00:02;98066.56;;;8.32;79.14
70445;BME280;57902;49.638;11.070;2022-11-15T03:13:19;98042.88;;;8.19;79.14
70445;BME280;57902;49.638;11.070;2022-11-15T03:15:56;98042.06;;;8.18;79.06
70445;BME280;57902;49.638;11.070;2022-11-15T03:18:42;98039.69;;;8.11;79.46
70445;BME280;57902;49.638;11.070;2022-11-15T03:21:11;98044.84;;;8.09;79.55
70445;BME280;57902;49.638;11.070;2022-11-15T03:23:39;98047.38;;;8.11;79.22
70445;BME280;57902;49.638;11.070;2022-11-15T03:26:08;98044.84;;;8.09;79.48
70445;BME280;57902;49.638;11.070;2022-11-15T03:28:45;98046.69;;;8.02;80.18
70445;BME280;57902;49.638;11.070;2022-11-15T03:31:15;98037.41;;;7.97;80.12
70445;BME280;57902;49.638;11.070;2022-11-15T03:34:04;98039.84;;;8.03;79.43
70445;BME280;57902;49.638;11.070;2022-11-15T03:36:32;98039.94;;;7.98;79.84
70445;BME280;57902;49.638;11.070;2022-11-15T03:39:02;98044.31;;;7.95;79.94
70445;BME280;57902;49.638;11.070;2022-11-15T03:41:39;98034.13;;;7.92;80.05
70445;BME280;57902;49.638;11.070;2022-11-15T03:44:23;98037.63;;;7.87;80.29
70445;BME280;57902;49.638;11.070;2022-11-15T03:47:21;98035.88;;;7.89;79.68
70445;BME280;57902;49.638;11.070;2022-11-15T03:49:57;98037.69;;;7.86;80.73
70445;BME280;57902;49.638;11.070;2022-11-15T03:52:25;98034.28;;;7.84;80.24
70445;BME280;57902;49.638;11.070;2022-11-15T03:54:56;98028.38;;;7.80;80.24
70445;BME280;57902;49.638;11.070;2022-11-15T03:57:23;98027.59;;;7.78;80.96
70445;BME280;57902;49.638;11.070;2022-11-15T03:59:50;98024.22;;;7.75;80.43
70445;BME280;57902;49.638;11.070;2022-11-15T04:02:16;98022.66;;;7.69;80.48
70445;BME280;57902;49.638;11.070;2022-11-15T04:04:42;98016.56;;;7.73;80.03
70445;BME280;57902;49.638;11.070;2022-11-15T04:07:09;98021.69;;;7.73;79.94
70445;BME280;57902;49.638;11.070;2022-11-15T04:09:36;98018.31;;;7.73;79.93
70445;BME280;57902;49.638;11.070;2022-11-15T04:12:23;98024.19;;;7.76;79.26
70445;BME280;57902;49.638;11.070;2022-11-15T04:15:05;98023.28;;;7.79;79.11
70445;BME280;57902;49.638;11.070;2022-11-15T04:17:43;98014.53;;;7.87;78.49
70445;BME280;57902;49.638;11.070;2022-11-15T04:23:01;98030.00;;;7.84;78.84
70445;BME280;57902;49.638;11.070;2022-11-15T04:25:48;98022.38;;;7.81;78.79
70445;BME280;57902;49.638;11.070;2022-11-15T04:28:16;98007.78;;;7.83;78.79
70445;BME280;57902;49.638;11.070;2022-11-15T04:30:43;98002.53;;;7.88;78.07
70445;BME280;57902;49.638;11.070;2022-11-15T04:33:09;98011.16;;;7.85;78.15
70445;BME280;57902;49.638;11.070;2022-11-15T04:35:35;98000.09;;;7.83;78.20
70445;BME280;57902;49.638;11.070;2022-11-15T04:38:04;97997.56;;;7.82;78.35
70445;BME280;57902;49.638;11.070;2022-11-15T04:40:30;97997.56;;;7.82;78.28
70445;BME280;57902;49.638;11.070;2022-11-15T04:42:57;97996.81;;;7.78;78.68
70445;BME280;57902;49.638;11.070;2022-11-15T04:45:29;97995.88;;;7.81;78.15
70445;BME280;57902;49.638;11.070;2022-11-15T04:47:56;98000.16;;;7.80;78.22
70445;BME280;57902;49.638;11.070;2022-11-15T04:50:22;98004.38;;;7.83;77.72
70445;BME280;57902;49.638;11.070;2022-11-15T04:52:53;98006.91;;;7.84;77.73
70445;BME280;57902;49.638;11.070;2022-11-15T04:55:20;97995.75;;;7.87;77.75
70445;BME280;57902;49.638;11.070;2022-11-15T04:57:46;97994.88;;;7.86;77.67
70445;BME280;57902;49.638;11.070;2022-11-15T05:00:15;97990.56;;;7.88;77.03
70445;BME280;57902;49.638;11.070;2022-11-15T05:02:42;97985.47;;;7.87;77.31
70445;BME280;57902;49.638;11.070;2022-11-15T05:05:27;97986.31;;;7.87;77.52
70445;BME280;57902;49.638;11.070;2022-11-15T05:07:53;97978.50;;;7.92;76.71
70445;BME280;57902;49.638;11.070;2022-11-15T05:10:20;97978.53;;;7.91;76.77
70445;BME280;57902;49.638;11.070;2022-11-15T05:12:46;97974.34;;;7.86;77.35
70445;BME280;57902;49.638;11.070;2022-11-15T05:15:13;97969.22;;;7.86;77.22
70445;BME280;57902;49.638;11.070;2022-11-15T05:17:39;97967.44;;;7.90;76.58
70445;BME280;57902;49.638;11.070;2022-11-15T05:20:06;97969.13;;;7.89;76.72
70445;BME280;57902;49.638;11.070;2022-11-15T05:22:32;97970.91;;;7.87;76.80
70445;BME280;57902;49.638;11.070;2022-11-15T05:24:59;97969.13;;;7.89;76.68
70445;BME280;57902;49.638;11.070;2022-11-15T05:27:25;97971.72;;;7.89;76.72
70445;BME280;57902;49.638;11.070;2022-11-15T05:29:52;97966.50;;;7.93;76.07
70445;BME280;57902;49.638;11.070;2022-11-15T05:32:18;97966.63;;;7.88;76.48
70445;BME280;57902;49.638;11.070;2022-11-15T05:34:45;97973.41;;;7.91;76.29
70445;BME280;57902;49.638;11.070;2022-11-15T05:37:13;97970.75;;;7.94;76.32
70445;BME280;57902;49.638;11.070;2022-11-15T05:39:40;97977.59;;;7.95;75.90
70445;BME280;57902;49.638;11.070;2022-11-15T05:42:11;97971.59;;;7.96;75.83
70445;BME280;57902;49.638;11.070;2022-11-15T05:44:41;97965.53;;;7.97;75.71
70445;BME280;57902;49.638;11.070;2022-11-15T05:47:12;97962.22;;;7.93;76.18
70445;BME280;57902;49.638;11.070;2022-11-15T05:49:42;97961.31;;;7.94;75.89
70445;BME280;57902;49.638;11.070;2022-11-15T05:52:13;97960.66;;;7.87;76.09
70445;BME280;57902;49.638;11.070;2022-11-15T05:54:41;97964.88;;;7.90;75.73
70445;BME280;57902;49.638;11.070;2022-11-15T05:57:07;97953.97;;;7.80;76.40
70445;BME280;57902;49.638;11.070;2022-11-15T05:59:34;97962.47;;;7.82;75.96
70445;BME280;57902;49.638;11.070;2022-11-15T06:02:01;97961.63;;;7.82;76.24
70445;BME280;57902;49.638;11.070;2022-11-15T06:04:27;97962.63;;;7.76;76.56
70445;BME280;57902;49.638;11.070;2022-11-15T06:06:54;97953.38;;;7.69;77.00
70445;BME280;57902;49.638;11.070;2022-11-15T06:09:20;97959.44;;;7.65;77.81
70445;BME280;57902;49.638;11.070;2022-11-15T06:11:47;97949.06;;;7.71;76.79
70445;BME280;57902;49.638;11.070;2022-11-15T06:14:14;97955.06;;;7.70;76.71
70445;BME280;57902;49.638;11.070;2022-11-15T06:16:40;97949.91;;;7.71;76.24
70445;BME280;57902;49.638;11.070;2022-11-15T06:19:07;97953.19;;;7.78;76.20
70445;BME280;57902;49.638;11.070;2022-11-15T06:21:34;97954.69;;;7.87;75.35
70445;BME280;57902;49.638;11.070;2022-11-15T06:24:00;97950.31;;;7.91;75.52
70445;BME280;57902;49.638;11.070;2022-11-15T06:26:27;97956.28;;;7.91;75.33
70445;BME280;57902;49.638;11.070;2022-11-15T06:28:53;97955.44;;;7.91;75.43
70445;BME280;57902;49.638;11.070;2022-11-15T06:31:20;97952.78;;;7.94;75.45
70445;BME280;57902;49.638;11.070;2022-11-15T06:33:46;97962.03;;;8.01;74.69
70445;BME280;57902;49.638;11.070;2022-11-15T06:36:13;97961.91;;;8.05;74.19
70445;BME280;57902;49.638;11.070;2022-11-15T06:38:44;97964.41;;;8.09;74.23
70445;BME280;57902;49.638;11.070;2022-11-15T06:41:11;97974.72;;;8.07;74.55
70445;BME280;57902;49.638;11.070;2022-11-15T06:43:39;97980.59;;;8.12;74.46
70445;BME280;57902;49.638;11.070;2022-11-15T06:46:06;97981.59;;;8.06;74.62
70445;BME280;57902;49.638;11.070;2022-11-15T06:48:33;97972.00;;;8.13;74.39
70445;BME280;57902;49.638;11.070;2022-11-15T06:51:01;97974.56;;;8.13;74.17
70445;BME280;57902;49.638;11.070;2022-11-15T06:53:29;97972.16;;;8.07;74.25
70445;BME280;57902;49.638;11.070;2022-11-15T06:56:06;97960.22;;;8.06;74.29
70445;BME280;57902;49.638;11.070;2022-11-15T06:58:33;97966.19;;;8.06;74.33
70445;BME280;57902;49.638;11.070;2022-11-15T07:01:02;97966.94;;;8.10;74.51
70445;BME280;57902;49.638;11.070;2022-11-15T07:03:29;97972.72;;;8.18;74.00
70445;BME280;57902;49.638;11.070;2022-11-15T07:05:57;97964.03;;;8.24;73.66
70445;BME280;57902;49.638;11.070;2022-11-15T07:08:31;97970.81;;;8.27;73.67
70445;BME280;57902;49.638;11.070;2022-11-15T07:10:59;97964.72;;;8.31;73.56
70445;BME280;57902;49.638;11.070;2022-11-15T07:13:29;97961.22;;;8.33;73.60
70445;BME280;57902;49.638;11.070;2022-11-15T07:15:56;97964.34;;;8.46;73.51
70445;BME280;57902;49.638;11.070;2022-11-15T07:18:23;97955.09;;;8.72;72.02
70445;BME280;57902;49.638;11.070;2022-11-15T07:20:50;97944.09;;;8.98;71.39
70445;BME280;57902;49.638;11.070;2022-11-15T07:23:16;97949.09;;;9.33;69.26
70445;BME280;57902;49.638;11.070;2022-11-15T07:25:43;97935.38;;;9.60;67.96
70445;BME280;57902;49.638;11.070;2022-11-15T07:28:09;97933.97;;;9.78;67.57
70445;BME280;57902;49.638;11.070;2022-11-15T07:30:36;97929.66;;;10.06;65.75
70445;BME280;57902;49.638;11.070;2022-11-15T07:33:10;97933.28;;;10.25;65.46
70445;BME280;57902;49.638;11.070;2022-11-15T07:35:36;97924.56;;;10.29;65.62
70445;BME280;57902;49.638;11.070;2022-11-15T07:38:03;97924.91;;;10.45;65.42
70445;BME280;57902;49.638;11.070;2022-11-15T07:40:31;97939.00;;;10.60;64.10
70445;BME280;57902;49.638;11.070;2022-11-15T07:43:02;97935.06;;;10.74;63.90
70445;BME280;57902;49.638;11.070;2022-11-15T07:45:29;97938.78;;;10.90;63.49
70445;BME280;57902;49.638;11.070;2022-11-15T07:47:56;97939.78;;;11.10;62.42
70445;BME280;57902;49.638;11.070;2022-11-15T07:50:23;97933.16;;;11.26;60.85
70445;BME280;57902;49.638;11.070;2022-11-15T07:52:54;97936.50;;;11.28;61.59
70445;BME280;57902;49.638;11.070;2022-11-15T07:55:22;97941.56;;;11.53;60.08
70445;BME280;57902;49.638;11.070;2022-11-15T07:57:49;97940.50;;;11.59;60.31
70445;BME280;57902;49.638;11.070;2022-11-15T08:00:16;97941.69;;;11.72;59.75
70445;BME280;57902;49.638;11.070;2022-11-15T08:02:42;97941.22;;;11.85;59.89
70445;BME280;57902;49.638;11.070;2022-11-15T08:05:09;97934.13;;;11.68;60.11
70445;BME280;57902;49.638;11.070;2022-11-15T08:07:35;97932.41;;;11.89;58.95
70445;BME280;57902;49.638;11.070;2022-11-15T08:10:04;97936.38;;;11.98;59.70
70445;BME280;57902;49.638;11.070;2022-11-15T08:12:32;97940.88;;;12.15;58.79
70445;BME280;57902;49.638;11.070;2022-11-15T08:14:58;97929.75;;;12.13;58.32
70445;BME280;57902;49.638;11.070;2022-11-15T08:17:25;97930.88;;;12.28;58.14
70445;BME280;57902;49.638;11.070;2022-11-15T08:19:51;97931.69;;;12.49;56.87
70445;BME280;57902;49.638;11.070;2022-11-15T08:22:18;97931.97;;;12.42;57.59
70445;BME280;57902;49.638;11.070;2022-11-15T08:24:44;97936.88;;;12.49;57.80
70445;BME280;57902;49.638;11.070;2022-11-15T08:27:11;97937.41;;;12.36;57.18
70445;BME280;57902;49.638;11.070;2022-11-15T08:29:44;97942.88;;;12.49;57.95
70445;BME280;57902;49.638;11.070;2022-11-15T08:32:11;97932.00;;;12.62;56.98
70445;BME280;57902;49.638;11.070;2022-11-15T08:34:38;97937.03;;;12.65;57.06
70445;BME280;57902;49.638;11.070;2022-11-15T08:37:04;97937.38;;;12.57;58.07
70445;BME280;57902;49.638;11.070;2022-11-15T08:39:31;97937.22;;;12.81;57.36
70445;BME280;57902;49.638;11.070;2022-11-15T08:41:58;97935.19;;;12.87;56.54
70445;BME280;57902;49.638;11.070;2022-11-15T08:44:25;97925.34;;;12.95;56.67
70445;BME280;57902;49.638;11.070;2022-11-15T08:46:52;97931.91;;;13.22;54.66
70445;BME280;57902;49.638;11.070;2022-11-15T08:49:18;97930.47;;;13.35;55.08
70445;BME280;57902;49.638;11.070;2022-11-15T08:51:44;97925.41;;;13.51;54.58
70445;BME280;57902;49.638;11.070;2022-11-15T08:54:11;97927.97;;;13.70;54.59
70445;BME280;57902;49.638;11.070;2022-11-15T08:56:37;97921.06;;;13.88;54.13
70445;BME280;57902;49.638;11.070;2022-11-15T08:59:04;97923.41;;;13.93;53.01
70445;BME280;57902;49.638;11.070;2022-11-15T09:01:30;97918.00;;;14.15;52.75
70445;BME280;57902;49.638;11.070;2022-11-15T09:03:58;97915.34;;;14.16;52.80
70445;BME280;57902;49.638;11.070;2022-11-15T09:06:25;97903.00;;;14.04;52.96
70445;BME280;57902;49.638;11.070;2022-11-15T09:08:51;97903.22;;;13.99;52.91
70445;BME280;57902;49.638;11.070;2022-11-15T09:11:18;97897.66;;;13.90;54.09
70445;BME280;57902;49.638;11.070;2022-11-15T09:13:46;97904.84;;;13.85;52.22
70445;BME280;57902;49.638;11.070;2022-11-15T09:16:13;97899.94;;;13.78;53.69
70445;BME280;57902;49.638;11.070;2022-11-15T09:18:41;97898.59;;;13.52;53.63
70445;BME280;57902;49.638;11.070;2022-11-15T09:21:08;97892.81;;;13.28;54.64
70445;BME280;57902;49.638;11.070;2022-11-15T09:23:35;97896.03;;;13.33;55.72
70445;BME280;57902;49.638;11.070;2022-11-15T09:26:04;97896.84;;;13.34;55.20
70445;BME280;57902;49.638;11.070;2022-11-15T09:28:31;97898.75;;;13.30;55.63
70445;BME280;57902;49.638;11.070;2022-11-15T09:31:01;97892.47;;;13.36;55.47
70445;BME280;57902;49.638;11.070;2022-11-15T09:33:28;97889.53;;;13.43;54.07
70445;BME280;57902;49.638;11.070;2022-11-15T09:36:04;97877.78;;;13.36;55.07
70445;BME280;57902;49.638;11.070;2022-11-15T09:38:31;97886.88;;;13.26;55.48
70445;BME280;57902;49.638;11.070;2022-11-15T09:41:36;97887.91;;;13.22;55.30
70445;BME280;57902;49.638;11.070;2022-11-15T09:49:57;97874.50;;;13.13;55.59
70445;BME280;57902;49.638;11.070;2022-11-15T09:52:24;97870.44;;;13.08;56.20
70445;BME280;57902;49.638;11.070;2022-11-15T09:54:52;97878.47;;;13.02;57.08
70445;BME280;57902;49.638;11.070;2022-11-15T09:57:30;97870.66;;;13.03;57.23
70445;BME280;57902;49.638;11.070;2022-11-15T10:00:24;97868.41;;;13.15;56.60
70445;BME280;57902;49.638;11.070;2022-11-15T10:05:47;97861.41;;;13.17;56.69
70445;BME280;57902;49.638;11.070;2022-11-15T10:10:58;97859.06;;;13.29;56.82
70445;BME280;57902;49.638;11.070;2022-11-15T10:13:46;97852.13;;;13.49;56.28
70445;BME280;57902;49.638;11.070;2022-11-15T10:22:50;97833.19;;;13.48;56.49
70445;BME280;57902;49.638;11.070;2022-11-15T10:25:18;97828.56;;;13.55;56.49
70445;BME280;57902;49.638;11.070;2022-11-15T10:30:21;97821.63;;;13.73;56.24
70445;BME280;57902;49.638;11.070;2022-11-15T10:32:48;97820.72;;;13.74;56.71
70445;BME280;57902;49.638;11.070;2022-11-15T10:35:42;97815.13;;;13.82;56.67
70445;BME280;57902;49.638;11.070;2022-11-15T10:38:10;97816.34;;;13.75;56.04
70445;BME280;57902;49.638;11.070;2022-11-15T10:40:39;97806.97;;;13.90;56.18
70445;BME280;57902;49.638;11.070;2022-11-15T10:45:36;97794.72;;;13.93;56.17
70445;BME280;57902;49.638;11.070;2022-11-15T10:50:49;97792.03;;;13.95;56.10
70445;BME280;57902;49.638;11.070;2022-11-15T10:53:59;97789.88;;;14.03;55.88
70445;BME280;57902;49.638;11.070;2022-11-15T10:56:07;97783.84;;;14.03;56.24
70445;BME280;57902;49.638;11.070;2022-11-15T10:58:50;97782.72;;;14.08;55.68
70445;BME280;57902;49.638;11.070;2022-11-15T11:01:20;97776.09;;;14.03;56.57
70445;BME280;57902;49.638;11.070;2022-11-15T11:04:20;97773.88;;;14.12;56.10
70445;BME280;57902;49.638;11.070;2022-11-15T11:09:34;97766.50;;;14.21;55.51
70445;BME280;57902;49.638;11.070;2022-11-15T11:12:04;97769.19;;;14.19;56.33
70445;BME280;57902;49.638;11.070;2022-11-15T11:14:33;97767.50;;;14.18;56.72
70445;BME280;57902;49.638;11.070;2022-11-15T11:17:16;97763.50;;;14.12;57.00
70445;BME280;57902;49.638;11.070;2022-11-15T11:22:38;97756.66;;;14.27;56.30
70445;BME280;57902;49.638;11.070;2022-11-15T11:25:30;97749.53;;;14.31;56.70
70445;BME280;57902;49.638;11.070;2022-11-15T11:30:52;97739.25;;;14.29;57.30
70445;BME280;57902;49.638;11.070;2022-11-15T11:33:33;97744.03;;;14.37;56.85
70445;BME280;57902;49.638;11.070;2022-11-15T11:44:32;97729.31;;;14.38;56.02
70445;BME280;57902;49.638;11.070;2022-11-15T11:47:01;97728.97;;;14.44;56.83
70445;BME280;57902;49.638;11.070;2022-11-15T11:49:33;97720.88;;;14.50;56.72
70445;BME280;57902;49.638;11.070;2022-11-15T11:52:26;97719.03;;;14.52;56.50
70445;BME280;57902;49.638;11.070;2022-11-15T11:57:34;97721.19;;;14.60;55.88
70445;BME280;57902;49.638;11.070;2022-11-15T12:00:14;97712.38;;;14.64;55.86
70445;BME280;57902;49.638;11.070;2022-11-15T12:02:47;97711.34;;;14.66;56.03
70445;BME280;57902;49.638;11.070;2022-11-15T12:05:54;97709.50;;;14.68;55.51
70445;BME280;57902;49.638;11.070;2022-11-15T12:08:28;97699.13;;;14.68;54.53
70445;BME280;57902;49.638;11.070;2022-11-15T12:11:22;97704.97;;;14.72;55.15
70445;BME280;57902;49.638;11.070;2022-11-15T12:13:55;97700.66;;;14.73;55.37
70445;BME280;57902;49.638;11.070;2022-11-15T12:16:28;97698.06;;;14.73;55.18
70445;BME280;57902;49.638;11.070;2022-11-15T12:19:01;97695.03;;;14.80;53.39
70445;BME280;57902;49.638;11.070;2022-11-15T12:21:36;97697.25;;;14.86;54.53
70445;BME280;57902;49.638;11.070;2022-11-15T12:24:34;97692.56;;;14.93;53.74
70445;BME280;57902;49.638;11.070;2022-11-15T12:27:12;97693.56;;;14.91;53.35
70445;BME280;57902;49.638;11.070;2022-11-15T12:29:51;97687.53;;;14.90;53.80
70445;BME280;57902;49.638;11.070;2022-11-15T12:32:34;97686.88;;;14.86;53.39
70445;BME280;57902;49.638;11.070;2022-11-15T12:35:05;97693.56;;;14.91;53.20
70445;BME280;57902;49.638;11.070;2022-11-15T12:45:41;97686.84;;;15.02;53.87
70445;BME280;57902;49.638;11.070;2022-11-15T12:51:01;97678.44;;;15.13;54.73
70445;BME280;57902;49.638;11.070;2022-11-15T12:53:32;97675.75;;;15.15;55.27
70445;BME280;57902;49.638;11.070;2022-11-15T13:04:28;97668.88;;;14.99;56.59
70445;BME280;57902;49.638;11.070;2022-11-15T13:06:59;97665.13;;;14.89;57.17
70445;BME280;57902;49.638;11.070;2022-11-15T13:11:57;97671.66;;;14.80;57.06
70445;BME280;57902;49.638;11.070;2022-11-15T13:19:53;97650.41;;;14.74;58.03
70445;BME280;57902;49.638;11.070;2022-11-15T13:22:21;97656.38;;;14.76;57.24
70445;BME280;57902;49.638;11.070;2022-11-15T13:25:16;97642.41;;;14.62;57.77
70445;BME280;57902;49.638;11.070;2022-11-15T13:27:48;97642.53;;;14.59;57.75
70445;BME280;57902;49.638;11.070;2022-11-15T13:30:24;97648.84;;;14.55;57.97
70445;BME280;57902;49.638;11.070;2022-11-15T13:32:51;97642.41;;;14.46;58.48
70445;BME280;57902;49.638;11.070;2022-11-15T13:35:28;97638.41;;;14.41;59.00
70445;BME280;57902;49.638;11.070;2022-11-15T13:38:03;97633.88;;;14.28;58.69
70445;BME280;57902;49.638;11.070;2022-11-15T13:40:35;97624.84;;;14.20;59.00
70445;BME280;57902;49.638;11.070;2022-11-15T13:43:35;97624.44;;;14.11;59.72
70445;BME280;57902;49.638;11.070;2022-11-15T13:46:22;97616.50;;;13.98;59.68
70445;BME280;57902;49.638;11.070;2022-11-15T13:48:59;97609.16;;;14.07;59.26
70445;BME280;57902;49.638;11.070;2022-11-15T13:51:28;97612.13;;;13.99;60.34
70445;BME280;57902;49.638;11.070;2022-11-15T13:54:01;97605.59;;;13.92;61.55
70445;BME280;57902;49.638;11.070;2022-11-15T13:56:30;97606.63;;;13.89;61.42
70445;BME280;57902;49.638;11.070;2022-11-15T13:58:58;97599.41;;;13.78;62.29
70445;BME280;57902;49.638;11.070;2022-11-15T14:01:27;97590.72;;;13.63;63.93
70445;BME280;57902;49.638;11.070;2022-11-15T14:03:59;97590.22;;;13.57;63.62
70445;BME280;57902;49.638;11.070;2022-11-15T14:06:28;97590.06;;;13.60;63.32
70445;BME280;57902;49.638;11.070;2022-11-15T14:11:52;97596.22;;;13.57;63.82
70445;BME280;57902;49.638;11.070;2022-11-15T14:14:22;97588.28;;;13.60;63.97
70445;BME280;57902;49.638;11.070;2022-11-15T14:16:52;97591.78;;;13.59;64.79
70445;BME280;57902;49.638;11.070;2022-11-15T14:22:21;97590.69;;;13.47;66.99
70445;BME280;57902;49.638;11.070;2022-11-15T14:25:16;97586.66;;;13.42;66.96
70445;BME280;57902;49.638;11.070;2022-11-15T14:28:07;97581.28;;;13.29;68.30
70445;BME280;57902;49.638;11.070;2022-11-15T14:30:31;97580.75;;;13.22;68.91
70445;BME280;57902;49.638;11.070;2022-11-15T14:32:57;97577.78;;;13.12;69.69
70445;BME280;57902;49.638;11.070;2022-11-15T14:35:24;97591.03;;;13.06;70.05
70445;BME280;57902;49.638;11.070;2022-11-15T14:37:50;97577.69;;;12.98;70.27
70445;BME280;57902;49.638;11.070;2022-11-15T14:40:19;97571.97;;;12.91;70.85
70445;BME280;57902;49.638;11.070;2022-11-15T14:42:48;97575.94;;;12.81;71.26
70445;BME280;57902;49.638;11.070;2022-11-15T14:45:19;97568.78;;;12.69;72.05
70445;BME280;57902;49.638;11.070;2022-11-15T14:47:47;97572.66;;;12.60;72.60
70445;BME280;57902;49.638;11.070;2022-11-15T14:50:16;97576.53;;;12.51;71.90
70445;BME280;57902;49.638;11.070;2022-11-15T14:52:44;97570.81;;;12.45;71.84
70445;BME280;57902;49.638;11.070;2022-11-15T14:55:16;97562.69;;;12.35;72.18
70445;BME280;57902;49.638;11.070;2022-11-15T14:57:44;97561.72;;;12.18;73.06